Racecast

Lindsey Bailey

Folsom (CA) · 10 · SFLCA D1SJS D1YOLO · Compare head to head

Athlete rating 122.9 2013 XC season
Best race 116.1 TF
Races 35
Seasons 3 2012 — 2014

RankedNation #16995·CA #5499·CA D1 #2622·SJS #405·SJS D1 #283·SFL #108·Team #12 ?

Speed rating — all races

Cross Country

XC speed rating

2013 XC 109.6

Folsom (CA) · Grade 10

Date Meet Event Result Place Rating Difficulty PR/SR Flags
2013-11-02 Willow Hills Reservoir Course 5000m 23:05 38th · 6th on team 111.6 +0.045 ★CR CSR
2013-10-18 Ancil Hoffman Park 5000m 22:14 25th · 3rd on team 114.2 +0.029 ★CR CSR RSR
2013-10-09 Granite Park 3540m 15:19 9th · 1st on team 110.5 -0.001 ★PR ★CR SR CSR
2013-09-28 Stanford University Golf Course 5000m 22:10 146th · 5th on team 111.8 +0.002 ★PR ★CR SR CSR RSR
2013-09-21 Muller Vineyards 3218m 15:02 15th · 1st on team 103.1 +0.024 ★CR SR CSR
2013-09-07 Willow Hills Reservoir Course 2500m 11:03 5th · 1st on team 107.7 +0.036 ★PR ★CR SR CSR
2013-08-31 Maidu Park 4000m 17:40 12th · 1st on team 108.4 -0.013 ★PR ★CR SR CSR RSR

2012 XC 105.5

Folsom (CA) · Grade 9

Date Meet Event Result Place Rating Difficulty PR/SR Flags
2012-11-03 Calaveras County Fairgrounds 3218m 14:49 14th · 4th on team 112.1 +0.084 ★PR ★CR SR CSR
2012-10-27 Willow Hills Reservoir Course 3400m 14:41 12th · 4th on team 115.6 +0.043 ★PR ★CR R SR CSR RSR
2012-10-17 Granite Park 3218m 15:33 8th · 4th on team 97.2 -0.013 PR ★CR SR CSR
2012-10-06 Granite Park 3540m 15:44 7th · 3rd on team 107.2 -0.001 PR CR R SR CSR RSR
2012-09-15 Willow Hills Reservoir Course 3300m 15:45 18th · 5th on team 105.3 +0.056 ★PR ★CR R SR CSR RSR
2012-09-08 Granite Park 3218m 15:46.1 33rd · 5th on team 95.6 -0.013 PR CR R SR CSR RSR

Track & Field

TF speed rating

2014 TF 112.9

Folsom (CA) · Grade 10

Date Meet Event Result Place Rating Difficulty PR/SR Flags
2014-05-16 DRL Finals (F/S & Varsity) 3200m 12:59 5th · 1st on team 116.1 -0.018 ★R RSR
2014-05-16 DRL Finals (F/S & Varsity) 1600m 6:07.48 8th · 1st on team 114.6 -0.018
2014-05-10 DRL League Trials (F/S & Varsity) 3200m 12:59 5th · 1st on team 115.6 -0.018 PR R SR RSR
2014-04-25 Frosh-Soph Future Stars 3200m 13:12.6 5th · 2nd on team 112.6 -0.021 SR
2014-04-23 DRL: Oak Ridge, Folsom, Jesuit, St. Fran 1600m 6:10.29 3rd · 1st on team 111.4 -0.034
2014-04-11 DelOro Invite 3000m 12:11.52 6th · 1st on team 114.1 -0.024 ★PR SR
2014-04-09 DRL Dual: Sheldon vs Folsom 1600m 6:05.8 5th · 2nd on team 114.7 -0.021 ★PR SR RSR
2014-04-02 DRL Dual: Folsom vs Ponderosa 3200m 13:25.2 1st · 1st on team 111.3 -0.022
2014-03-29 Thunder Invitational 1600m 6:13.57 14th · 2nd on team 111.9 -0.024 PR SR RSR
2014-03-15 Folsom Depth Charge 1600m 6:22.46 9th · 2nd on team 109.7 -0.021 SR
2014-03-08 King/Gilbert Invitational 3200m 13:21.86 6th · 1st on team 111.7 -0.027 SR RSR
2014-03-01 Capital Classic Relays 3200m 13:22.73 15th · 3rd on team 110.8 -0.033 SR RSR

2013 TF 107.4

Folsom (CA) · Grade 9

Date Meet Event Result Place Rating Difficulty PR/SR Flags
2013-04-26 Frosh/Soph Future Stars Invitational 1600m 6:21 8th · 3rd on team 109.7 -0.021
2013-04-24 Jesuit/St. Francis, Folsom vs. Oak Ridge 400m 1:15.91 3rd · 1st on team -0.018 ★PR SR
2013-04-24 Jesuit/St. Francis, Folsom vs. Oak Ridge 800m 2:56.29 7th · 2nd on team 105.3 -0.018 ★PR SR
2013-04-19 45th Annual Del Oro Invite 800m 2:57.15 24th · 1st on team 104.0 -0.024 PR SR
2013-04-19 45th Annual Del Oro Invite 1500m 5:50.71 22nd · 3rd on team 110.1 -0.024 ★PR SR
2013-04-17 Ponderosa vs Folsom 800m 2:57.6 2nd · 2nd on team 104.7 -0.021 PR SR
2013-04-10 Folsom vs Pleasant Grove 1600m 6:31.9 2nd · 2nd on team 106.7 -0.021
2013-04-10 Folsom vs Pleasant Grove 800m 3:02.1 2nd · 2nd on team 101.8 -0.021 PR SR
2013-03-20 Sheldon vs Folsom 3200m 13:06.8 2nd · 1st on team 113.2 -0.021 PR SR RSR
2013-03-16 Depth Charge 1600m 6:15.83 5th · 3rd on team 110.9 -0.021 PR SR RSR